CCM93UH LFPO-LFKC
Flight info
| Callsign | CCM93UH |
|---|---|
| Flight time | 1h 18m |
| Altitude | 35000 |
| Route | LATRA DCT LAMUT DCT UTUVA DCT TITVA DCT NOQAS DCT OTROT DCT RETNO DCT KOLON DCT NARTI UP991 NIRDO |
| Aircraft | A320/M-SDE3FGHIRWY/LB1 |
Departure
| Time | 2026-04-17 12:06 |
|---|---|
| Airport | Paris-Orly Airport (LFPO) |
Arrival
| Time | 2026-04-17 13:24 |
|---|---|
| Airport | Calvi Sainte Catherine Airport (LFKC) |
| Time | Latitude | Longitude | Altitude | Speed | Heading |
|---|---|---|---|---|---|
| 2026-04-17 11:48 | 48.72662 | 2.35776 | 281 ft | 0 kts | 64° |
| 2026-04-17 11:52 | 48.72662 | 2.35777 | 281 ft | 0 kts | 64° |
| 2026-04-17 11:56 | 48.72662 | 2.35776 | 281 ft | 0 kts | 64° |
| 2026-04-17 11:59 | 48.72660 | 2.35771 | 281 ft | 2 kts | 64° |
| 2026-04-17 12:00 | 48.72653 | 2.35750 | 281 ft | 2 kts | 64° |
| 2026-04-17 12:00 | 48.72647 | 2.35730 | 280 ft | 2 kts | 64° |
| 2026-04-17 12:00 | 48.72641 | 2.35710 | 280 ft | 2 kts | 64° |
| 2026-04-17 12:00 | 48.72634 | 2.35689 | 279 ft | 2 kts | 77° |
| 2026-04-17 12:01 | 48.72635 | 2.35666 | 279 ft | 2 kts | 114° |
| 2026-04-17 12:01 | 48.72644 | 2.35648 | 279 ft | 2 kts | 148° |
| 2026-04-17 12:01 | 48.72659 | 2.35641 | 279 ft | 2 kts | 170° |
| 2026-04-17 12:01 | 48.72670 | 2.35637 | 279 ft | 0 kts | 162° |
| 2026-04-17 12:03 | 48.72660 | 2.35641 | 279 ft | 3 kts | 164° |
| 2026-04-17 12:03 | 48.72628 | 2.35643 | 279 ft | 6 kts | 194° |
| 2026-04-17 12:03 | 48.72598 | 2.35575 | 279 ft | 9 kts | 272° |
| 2026-04-17 12:04 | 48.72659 | 2.35514 | 279 ft | 13 kts | 345° |
| 2026-04-17 12:04 | 48.72756 | 2.35474 | 279 ft | 15 kts | 344° |
| 2026-04-17 12:04 | 48.72866 | 2.35425 | 280 ft | 17 kts | 337° |
| 2026-04-17 12:04 | 48.72966 | 2.35366 | 281 ft | 15 kts | 13° |
| 2026-04-17 12:05 | 48.73081 | 2.35421 | 280 ft | 18 kts | 19° |
| 2026-04-17 12:05 | 48.73208 | 2.35474 | 282 ft | 19 kts | 350° |
| 2026-04-17 12:05 | 48.73279 | 2.35319 | 282 ft | 21 kts | 251° |
| 2026-04-17 12:05 | 48.73147 | 2.34936 | 282 ft | 80 kts | 242° |
| 2026-04-17 12:06 | 48.72758 | 2.33835 | 305 ft | 151 kts | 241° |
| 2026-04-17 12:06 | 48.72255 | 2.32409 | 989 ft | 157 kts | 241° |
| 2026-04-17 12:06 | 48.71729 | 2.30997 | 1843 ft | 157 kts | 237° |
| 2026-04-17 12:06 | 48.71133 | 2.29576 | 2432 ft | 168 kts | 236° |
| 2026-04-17 12:07 | 48.70462 | 2.28030 | 2966 ft | 185 kts | 235° |
| 2026-04-17 12:07 | 48.69721 | 2.26327 | 3450 ft | 207 kts | 236° |
| 2026-04-17 12:07 | 48.68889 | 2.24406 | 4066 ft | 226 kts | 236° |
| 2026-04-17 12:07 | 48.68000 | 2.22343 | 4717 ft | 245 kts | 237° |
| 2026-04-17 12:08 | 48.67039 | 2.20142 | 5374 ft | 262 kts | 233° |
| 2026-04-17 12:08 | 48.65622 | 2.18390 | 6213 ft | 274 kts | 204° |
| 2026-04-17 12:08 | 48.63746 | 2.17973 | 7238 ft | 280 kts | 174° |
| 2026-04-17 12:08 | 48.61942 | 2.18986 | 8241 ft | 286 kts | 150° |
| 2026-04-17 12:09 | 48.60237 | 2.20564 | 9235 ft | 291 kts | 150° |
| 2026-04-17 12:09 | 48.58525 | 2.22125 | 10199 ft | 295 kts | 151° |
| 2026-04-17 12:09 | 48.56737 | 2.23728 | 11047 ft | 305 kts | 152° |
| 2026-04-17 12:09 | 48.54877 | 2.25379 | 11717 ft | 319 kts | 152° |
| 2026-04-17 12:10 | 48.52943 | 2.27091 | 12593 ft | 326 kts | 152° |
| 2026-04-17 12:10 | 48.51000 | 2.28809 | 13497 ft | 329 kts | 152° |
| 2026-04-17 12:10 | 48.49018 | 2.30507 | 14365 ft | 333 kts | 155° |
| 2026-04-17 12:10 | 48.46912 | 2.31970 | 15222 ft | 335 kts | 160° |
| 2026-04-17 12:11 | 48.44716 | 2.33139 | 16049 ft | 338 kts | 164° |
| 2026-04-17 12:11 | 48.42474 | 2.34224 | 16847 ft | 342 kts | 164° |
| 2026-04-17 12:11 | 48.40228 | 2.35297 | 17614 ft | 346 kts | 164° |
| 2026-04-17 12:12 | 48.35601 | 2.37516 | 19121 ft | 353 kts | 164° |
| 2026-04-17 12:12 | 48.33251 | 2.38647 | 19832 ft | 357 kts | 164° |
| 2026-04-17 12:12 | 48.30912 | 2.39775 | 20520 ft | 361 kts | 164° |
| 2026-04-17 12:12 | 48.28498 | 2.40939 | 21217 ft | 365 kts | 163° |
| 2026-04-17 12:13 | 48.26090 | 2.42181 | 21876 ft | 370 kts | 162° |
| 2026-04-17 12:13 | 48.23664 | 2.43484 | 22512 ft | 374 kts | 162° |
| 2026-04-17 12:13 | 48.21196 | 2.44812 | 23138 ft | 378 kts | 162° |
| 2026-04-17 12:13 | 48.18715 | 2.46143 | 23761 ft | 382 kts | 162° |
| 2026-04-17 12:14 | 48.16192 | 2.47485 | 24392 ft | 386 kts | 162° |
| 2026-04-17 12:14 | 48.13675 | 2.48819 | 24999 ft | 389 kts | 162° |
| 2026-04-17 12:14 | 48.11115 | 2.50175 | 25588 ft | 393 kts | 162° |
| 2026-04-17 12:14 | 48.08524 | 2.51547 | 26151 ft | 396 kts | 162° |
| 2026-04-17 12:15 | 48.05889 | 2.52890 | 26729 ft | 399 kts | 163° |
| 2026-04-17 12:15 | 48.03283 | 2.54176 | 27283 ft | 401 kts | 163° |
| 2026-04-17 12:15 | 48.00608 | 2.55487 | 27832 ft | 404 kts | 163° |
| 2026-04-17 12:15 | 47.97960 | 2.56785 | 28351 ft | 407 kts | 163° |
| 2026-04-17 12:16 | 47.95211 | 2.58133 | 28850 ft | 411 kts | 163° |
| 2026-04-17 12:16 | 47.92460 | 2.59482 | 29327 ft | 414 kts | 163° |
| 2026-04-17 12:16 | 47.89745 | 2.60814 | 29784 ft | 417 kts | 163° |
| 2026-04-17 12:16 | 47.86949 | 2.62185 | 30239 ft | 420 kts | 162° |
| 2026-04-17 12:17 | 47.84186 | 2.63539 | 30667 ft | 423 kts | 162° |
| 2026-04-17 12:17 | 47.81392 | 2.64906 | 31070 ft | 426 kts | 162° |
| 2026-04-17 12:17 | 47.78552 | 2.66294 | 31464 ft | 429 kts | 163° |
| 2026-04-17 12:17 | 47.75716 | 2.67680 | 31844 ft | 432 kts | 163° |
| 2026-04-17 12:18 | 47.72849 | 2.69080 | 32207 ft | 435 kts | 163° |
| 2026-04-17 12:18 | 47.69970 | 2.70483 | 32563 ft | 438 kts | 163° |
| 2026-04-17 12:18 | 47.67082 | 2.71887 | 32924 ft | 441 kts | 163° |
| 2026-04-17 12:18 | 47.64152 | 2.73313 | 33259 ft | 444 kts | 163° |
| 2026-04-17 12:19 | 47.61233 | 2.74731 | 33572 ft | 446 kts | 163° |
| 2026-04-17 12:19 | 47.58257 | 2.76174 | 33888 ft | 449 kts | 163° |
| 2026-04-17 12:19 | 47.55298 | 2.77607 | 34198 ft | 451 kts | 163° |
| 2026-04-17 12:19 | 47.52340 | 2.79039 | 34475 ft | 454 kts | 163° |
| 2026-04-17 12:20 | 47.49338 | 2.80489 | 34761 ft | 456 kts | 163° |
| 2026-04-17 12:20 | 47.46293 | 2.81958 | 35054 ft | 458 kts | 164° |
| 2026-04-17 12:20 | 47.43266 | 2.83417 | 35212 ft | 459 kts | 164° |
| 2026-04-17 12:21 | 47.37257 | 2.86308 | 35214 ft | 458 kts | 164° |
| 2026-04-17 12:21 | 47.31218 | 2.89206 | 35212 ft | 458 kts | 164° |
| 2026-04-17 12:22 | 47.25163 | 2.92103 | 35212 ft | 458 kts | 164° |
| 2026-04-17 12:22 | 47.19084 | 2.95006 | 35216 ft | 459 kts | 164° |
| 2026-04-17 12:23 | 47.13044 | 2.97883 | 35219 ft | 459 kts | 164° |
| 2026-04-17 12:23 | 47.06911 | 3.00490 | 35221 ft | 457 kts | 166° |
| 2026-04-17 12:24 | 47.00825 | 3.03003 | 35217 ft | 456 kts | 166° |
| 2026-04-17 12:24 | 46.94736 | 3.05510 | 35216 ft | 456 kts | 166° |
| 2026-04-17 12:25 | 46.88615 | 3.08018 | 35216 ft | 457 kts | 166° |
| 2026-04-17 12:25 | 46.82511 | 3.10515 | 35211 ft | 458 kts | 166° |
| 2026-04-17 12:26 | 46.76339 | 3.13035 | 35209 ft | 458 kts | 167° |
| 2026-04-17 12:26 | 46.70212 | 3.15532 | 35205 ft | 458 kts | 167° |
| 2026-04-17 12:27 | 46.64079 | 3.18022 | 35206 ft | 458 kts | 167° |
| 2026-04-17 12:27 | 46.57971 | 3.20496 | 35204 ft | 458 kts | 167° |
| 2026-04-17 12:28 | 46.51834 | 3.22976 | 35200 ft | 458 kts | 167° |
| 2026-04-17 12:28 | 46.45696 | 3.25452 | 35197 ft | 459 kts | 167° |
| 2026-04-17 12:29 | 46.39562 | 3.27919 | 35198 ft | 459 kts | 167° |
| 2026-04-17 12:29 | 46.33448 | 3.30375 | 35197 ft | 458 kts | 167° |
| 2026-04-17 12:30 | 46.27325 | 3.32826 | 35201 ft | 459 kts | 167° |
| 2026-04-17 12:30 | 46.21143 | 3.35297 | 35199 ft | 459 kts | 167° |
| 2026-04-17 12:31 | 46.14982 | 3.37751 | 35205 ft | 459 kts | 167° |
| 2026-04-17 12:31 | 46.08815 | 3.40203 | 35204 ft | 459 kts | 167° |
| 2026-04-17 12:32 | 46.02670 | 3.42639 | 35200 ft | 459 kts | 167° |
| 2026-04-17 12:32 | 45.96495 | 3.45081 | 35209 ft | 459 kts | 167° |
| 2026-04-17 12:33 | 45.90382 | 3.47775 | 35214 ft | 462 kts | 162° |
| 2026-04-17 12:33 | 45.84447 | 3.51450 | 35209 ft | 465 kts | 155° |
| 2026-04-17 12:34 | 45.78867 | 3.56070 | 35211 ft | 467 kts | 148° |
| 2026-04-17 12:34 | 45.73417 | 3.61232 | 35215 ft | 467 kts | 148° |
| 2026-04-17 12:35 | 45.68035 | 3.66307 | 35212 ft | 467 kts | 149° |
| 2026-04-17 12:35 | 45.62597 | 3.71409 | 35213 ft | 467 kts | 149° |
| 2026-04-17 12:37 | 45.40979 | 3.91835 | 35212 ft | 469 kts | 144° |
| 2026-04-17 12:38 | 45.36040 | 3.97970 | 35201 ft | 471 kts | 137° |
| 2026-04-17 12:38 | 45.31709 | 4.04876 | 35191 ft | 473 kts | 129° |
| 2026-04-17 12:39 | 45.27838 | 4.12402 | 35203 ft | 474 kts | 126° |
| 2026-04-17 12:39 | 45.24000 | 4.19981 | 35201 ft | 474 kts | 127° |
| 2026-04-17 12:40 | 45.20137 | 4.27529 | 35200 ft | 473 kts | 127° |
| 2026-04-17 12:40 | 45.16263 | 4.35049 | 35195 ft | 473 kts | 127° |
| 2026-04-17 12:41 | 45.12386 | 4.42550 | 35200 ft | 473 kts | 127° |
| 2026-04-17 12:41 | 45.08225 | 4.49711 | 35195 ft | 473 kts | 131° |
| 2026-04-17 12:42 | 45.03922 | 4.56732 | 35189 ft | 473 kts | 131° |
| 2026-04-17 12:42 | 44.99605 | 4.63760 | 35186 ft | 473 kts | 131° |
| 2026-04-17 12:43 | 44.95279 | 4.70793 | 35177 ft | 474 kts | 132° |
| 2026-04-17 12:43 | 44.90964 | 4.77792 | 35174 ft | 474 kts | 132° |
| 2026-04-17 12:44 | 44.86646 | 4.84783 | 35170 ft | 474 kts | 132° |
| 2026-04-17 12:44 | 44.82341 | 4.91733 | 35170 ft | 474 kts | 132° |
| 2026-04-17 12:45 | 44.77990 | 4.98737 | 35164 ft | 474 kts | 132° |
| 2026-04-17 12:45 | 44.73657 | 5.05695 | 35159 ft | 474 kts | 132° |
| 2026-04-17 12:46 | 44.69294 | 5.12687 | 35157 ft | 474 kts | 132° |
| 2026-04-17 12:46 | 44.64968 | 5.19603 | 35158 ft | 474 kts | 132° |
| 2026-04-17 12:47 | 44.60605 | 5.26561 | 35164 ft | 474 kts | 132° |
| 2026-04-17 12:47 | 44.56281 | 5.33438 | 35174 ft | 474 kts | 131° |
| 2026-04-17 12:48 | 44.51907 | 5.40380 | 35186 ft | 474 kts | 131° |
| 2026-04-17 12:48 | 44.47571 | 5.47242 | 35188 ft | 474 kts | 131° |
| 2026-04-17 12:49 | 44.43207 | 5.54130 | 35192 ft | 474 kts | 131° |
| 2026-04-17 12:49 | 44.38864 | 5.61076 | 35186 ft | 475 kts | 129° |
| 2026-04-17 12:50 | 44.34947 | 5.68572 | 35127 ft | 475 kts | 124° |
| 2026-04-17 12:50 | 44.31261 | 5.76197 | 35170 ft | 474 kts | 124° |
| 2026-04-17 12:51 | 44.27568 | 5.83811 | 35185 ft | 474 kts | 124° |
| 2026-04-17 12:51 | 44.23888 | 5.91364 | 35184 ft | 474 kts | 124° |
| 2026-04-17 12:52 | 44.20181 | 5.98946 | 35188 ft | 473 kts | 124° |
| 2026-04-17 12:52 | 44.16481 | 6.06488 | 35193 ft | 473 kts | 124° |
| 2026-04-17 12:53 | 44.12767 | 6.14046 | 35185 ft | 474 kts | 124° |
| 2026-04-17 12:53 | 44.09046 | 6.21596 | 35183 ft | 474 kts | 124° |
| 2026-04-17 12:54 | 44.05333 | 6.29106 | 35188 ft | 473 kts | 124° |
| 2026-04-17 12:54 | 44.01608 | 6.36621 | 35189 ft | 473 kts | 124° |
| 2026-04-17 12:55 | 43.97885 | 6.44111 | 35190 ft | 473 kts | 123° |
| 2026-04-17 12:55 | 43.94159 | 6.51590 | 35192 ft | 473 kts | 123° |
| 2026-04-17 12:56 | 43.90414 | 6.59089 | 35196 ft | 473 kts | 123° |
| 2026-04-17 12:56 | 43.86676 | 6.66557 | 35191 ft | 473 kts | 124° |
| 2026-04-17 12:57 | 43.82919 | 6.74044 | 35193 ft | 473 kts | 124° |
| 2026-04-17 12:57 | 43.79191 | 6.81451 | 35196 ft | 473 kts | 124° |
| 2026-04-17 12:58 | 43.75428 | 6.88906 | 35190 ft | 473 kts | 124° |
| 2026-04-17 12:58 | 43.71589 | 6.96230 | 34960 ft | 467 kts | 128° |
| 2026-04-17 12:58 | 43.69544 | 6.99612 | 34332 ft | 465 kts | 130° |
| 2026-04-17 12:59 | 43.67427 | 7.03001 | 33477 ft | 460 kts | 130° |
| 2026-04-17 12:59 | 43.65375 | 7.06270 | 32498 ft | 452 kts | 130° |
| 2026-04-17 12:59 | 43.63329 | 7.09529 | 31477 ft | 444 kts | 130° |
| 2026-04-17 12:59 | 43.61338 | 7.12706 | 30429 ft | 437 kts | 130° |
| 2026-04-17 13:00 | 43.59375 | 7.15840 | 29373 ft | 430 kts | 130° |
| 2026-04-17 13:00 | 43.57424 | 7.18967 | 28322 ft | 422 kts | 128° |
| 2026-04-17 13:00 | 43.55693 | 7.22114 | 27322 ft | 414 kts | 123° |
| 2026-04-17 13:00 | 43.54180 | 7.25458 | 26303 ft | 406 kts | 117° |
| 2026-04-17 13:01 | 43.52933 | 7.28871 | 25304 ft | 398 kts | 113° |
| 2026-04-17 13:01 | 43.51807 | 7.32291 | 24300 ft | 391 kts | 112° |
| 2026-04-17 13:01 | 43.50718 | 7.35646 | 23310 ft | 384 kts | 112° |
| 2026-04-17 13:01 | 43.49646 | 7.38934 | 22340 ft | 378 kts | 112° |
| 2026-04-17 13:02 | 43.48587 | 7.42173 | 21379 ft | 372 kts | 112° |
| 2026-04-17 13:02 | 43.47523 | 7.45408 | 20413 ft | 367 kts | 112° |
| 2026-04-17 13:02 | 43.46496 | 7.48524 | 19463 ft | 362 kts | 112° |
| 2026-04-17 13:02 | 43.45462 | 7.51654 | 18620 ft | 354 kts | 112° |
| 2026-04-17 13:03 | 43.44468 | 7.54655 | 18132 ft | 343 kts | 112° |
| 2026-04-17 13:03 | 43.43493 | 7.57595 | 17808 ft | 334 kts | 112° |
| 2026-04-17 13:03 | 43.42537 | 7.60476 | 17411 ft | 330 kts | 112° |
| 2026-04-17 13:03 | 43.41587 | 7.63335 | 16977 ft | 329 kts | 112° |
| 2026-04-17 13:04 | 43.40640 | 7.66184 | 16556 ft | 327 kts | 113° |
| 2026-04-17 13:04 | 43.39707 | 7.68987 | 16116 ft | 325 kts | 113° |
| 2026-04-17 13:04 | 43.38769 | 7.71801 | 15711 ft | 323 kts | 113° |
| 2026-04-17 13:04 | 43.37844 | 7.74574 | 15307 ft | 320 kts | 113° |
| 2026-04-17 13:05 | 43.36915 | 7.77354 | 14910 ft | 318 kts | 113° |
| 2026-04-17 13:05 | 43.35994 | 7.80109 | 14502 ft | 316 kts | 113° |
| 2026-04-17 13:05 | 43.35080 | 7.82839 | 14116 ft | 314 kts | 113° |
| 2026-04-17 13:05 | 43.34181 | 7.85526 | 13708 ft | 313 kts | 113° |
| 2026-04-17 13:06 | 43.33275 | 7.88225 | 13325 ft | 311 kts | 113° |
| 2026-04-17 13:06 | 43.32377 | 7.90901 | 12919 ft | 308 kts | 113° |
| 2026-04-17 13:06 | 43.31485 | 7.93557 | 12520 ft | 306 kts | 113° |
| 2026-04-17 13:06 | 43.30600 | 7.96186 | 12145 ft | 304 kts | 113° |
| 2026-04-17 13:07 | 43.29711 | 7.98832 | 11733 ft | 302 kts | 113° |
| 2026-04-17 13:07 | 43.28836 | 8.01430 | 11328 ft | 300 kts | 113° |
| 2026-04-17 13:07 | 43.27973 | 8.03990 | 10942 ft | 298 kts | 113° |
| 2026-04-17 13:07 | 43.27102 | 8.06570 | 10549 ft | 296 kts | 113° |
| 2026-04-17 13:08 | 43.26250 | 8.09089 | 10135 ft | 294 kts | 113° |
| 2026-04-17 13:08 | 43.25390 | 8.11628 | 9719 ft | 292 kts | 113° |
| 2026-04-17 13:08 | 43.24538 | 8.14145 | 9319 ft | 290 kts | 113° |
| 2026-04-17 13:08 | 43.23695 | 8.16629 | 8923 ft | 288 kts | 113° |
| 2026-04-17 13:09 | 43.22851 | 8.19115 | 8515 ft | 286 kts | 113° |
| 2026-04-17 13:09 | 43.22015 | 8.21574 | 8140 ft | 284 kts | 113° |
| 2026-04-17 13:09 | 43.21184 | 8.24019 | 7753 ft | 283 kts | 113° |
| 2026-04-17 13:09 | 43.20363 | 8.26435 | 7341 ft | 281 kts | 113° |
| 2026-04-17 13:10 | 43.19546 | 8.28835 | 6969 ft | 279 kts | 113° |
| 2026-04-17 13:10 | 43.18728 | 8.31236 | 6579 ft | 278 kts | 113° |
| 2026-04-17 13:10 | 43.17917 | 8.33614 | 6206 ft | 275 kts | 113° |
| 2026-04-17 13:10 | 43.17108 | 8.35985 | 6095 ft | 275 kts | 113° |
| 2026-04-17 13:11 | 43.16295 | 8.38365 | 6095 ft | 276 kts | 113° |
| 2026-04-17 13:11 | 43.15476 | 8.40757 | 6096 ft | 274 kts | 114° |
| 2026-04-17 13:11 | 43.14612 | 8.43004 | 6080 ft | 264 kts | 118° |
| 2026-04-17 13:11 | 43.13656 | 8.45111 | 5777 ft | 262 kts | 122° |
| 2026-04-17 13:12 | 43.12590 | 8.47143 | 5384 ft | 263 kts | 124° |
| 2026-04-17 13:12 | 43.10429 | 8.51146 | 4671 ft | 261 kts | 124° |
| 2026-04-17 13:12 | 43.09354 | 8.53138 | 4326 ft | 260 kts | 124° |
| 2026-04-17 13:13 | 43.08286 | 8.55116 | 3972 ft | 259 kts | 124° |
| 2026-04-17 13:13 | 43.07226 | 8.57081 | 3620 ft | 258 kts | 124° |
| 2026-04-17 13:13 | 43.06166 | 8.59046 | 3267 ft | 257 kts | 124° |
| 2026-04-17 13:13 | 43.05103 | 8.61017 | 2997 ft | 254 kts | 124° |
| 2026-04-17 13:14 | 43.04056 | 8.62957 | 2970 ft | 255 kts | 124° |
| 2026-04-17 13:14 | 43.03008 | 8.64897 | 2973 ft | 255 kts | 124° |
| 2026-04-17 13:14 | 43.01958 | 8.66840 | 2973 ft | 255 kts | 125° |
| 2026-04-17 13:14 | 43.00898 | 8.68799 | 2968 ft | 251 kts | 125° |
| 2026-04-17 13:15 | 42.99900 | 8.70638 | 2961 ft | 236 kts | 125° |
| 2026-04-17 13:15 | 42.98949 | 8.72390 | 2954 ft | 221 kts | 125° |
| 2026-04-17 13:15 | 42.98059 | 8.74033 | 2955 ft | 214 kts | 125° |
| 2026-04-17 13:15 | 42.97179 | 8.75657 | 2964 ft | 213 kts | 125° |
| 2026-04-17 13:16 | 42.96287 | 8.77292 | 2968 ft | 214 kts | 128° |
| 2026-04-17 13:16 | 42.95163 | 8.78592 | 2967 ft | 216 kts | 152° |
| 2026-04-17 13:16 | 42.93716 | 8.79213 | 2971 ft | 217 kts | 174° |
| 2026-04-17 13:16 | 42.92210 | 8.79279 | 2979 ft | 218 kts | 180° |
| 2026-04-17 13:17 | 42.90705 | 8.79250 | 2971 ft | 218 kts | 181° |
| 2026-04-17 13:17 | 42.89188 | 8.79221 | 2970 ft | 217 kts | 181° |
| 2026-04-17 13:17 | 42.87656 | 8.79205 | 2970 ft | 217 kts | 181° |
| 2026-04-17 13:17 | 42.86143 | 8.79194 | 2970 ft | 217 kts | 180° |
| 2026-04-17 13:18 | 42.84628 | 8.79189 | 2968 ft | 217 kts | 180° |
| 2026-04-17 13:18 | 42.83123 | 8.79185 | 2969 ft | 217 kts | 180° |
| 2026-04-17 13:18 | 42.81620 | 8.79184 | 2968 ft | 216 kts | 180° |
| 2026-04-17 13:18 | 42.80108 | 8.79183 | 2968 ft | 216 kts | 180° |
| 2026-04-17 13:19 | 42.78603 | 8.79182 | 2970 ft | 216 kts | 180° |
| 2026-04-17 13:19 | 42.77111 | 8.79182 | 2970 ft | 216 kts | 180° |
| 2026-04-17 13:19 | 42.75594 | 8.79188 | 2974 ft | 217 kts | 180° |
| 2026-04-17 13:19 | 42.74088 | 8.79195 | 2974 ft | 213 kts | 180° |
| 2026-04-17 13:20 | 42.72671 | 8.79203 | 3044 ft | 199 kts | 180° |
| 2026-04-17 13:20 | 42.71283 | 8.79209 | 3000 ft | 197 kts | 180° |
| 2026-04-17 13:20 | 42.69939 | 8.79215 | 2975 ft | 190 kts | 180° |
| 2026-04-17 13:20 | 42.68625 | 8.79219 | 2858 ft | 185 kts | 180° |
| 2026-04-17 13:21 | 42.67343 | 8.79225 | 2661 ft | 184 kts | 180° |
| 2026-04-17 13:21 | 42.66073 | 8.79231 | 2458 ft | 178 kts | 180° |
| 2026-04-17 13:21 | 42.64850 | 8.79236 | 2266 ft | 173 kts | 180° |
| 2026-04-17 13:21 | 42.63662 | 8.79242 | 2070 ft | 172 kts | 180° |
| 2026-04-17 13:22 | 42.62503 | 8.79247 | 1874 ft | 159 kts | 180° |
| 2026-04-17 13:22 | 42.61446 | 8.79250 | 1663 ft | 146 kts | 180° |
| 2026-04-17 13:22 | 42.60469 | 8.79250 | 1443 ft | 135 kts | 180° |
| 2026-04-17 13:22 | 42.59540 | 8.79241 | 1179 ft | 131 kts | 179° |
| 2026-04-17 13:23 | 42.58628 | 8.79254 | 940 ft | 131 kts | 179° |
| 2026-04-17 13:23 | 42.57721 | 8.79266 | 746 ft | 131 kts | 180° |
| 2026-04-17 13:23 | 42.56810 | 8.79282 | 588 ft | 131 kts | 179° |
| 2026-04-17 13:23 | 42.55888 | 8.79288 | 447 ft | 131 kts | 179° |
| 2026-04-17 13:24 | 42.54977 | 8.79292 | 314 ft | 131 kts | 181° |
| 2026-04-17 13:24 | 42.54065 | 8.79295 | 171 ft | 131 kts | 178° |
| 2026-04-17 13:24 | 42.53182 | 8.79302 | 151 ft | 105 kts | 182° |
| 2026-04-17 13:24 | 42.52733 | 8.79300 | 180 ft | 38 kts | 180° |
| 2026-04-17 13:25 | 42.52537 | 8.79301 | 195 ft | 22 kts | 180° |
| 2026-04-17 13:25 | 42.52443 | 8.79282 | 200 ft | 10 kts | 232° |
| 2026-04-17 13:25 | 42.52435 | 8.79187 | 202 ft | 8 kts | 282° |
| 2026-04-17 13:25 | 42.52485 | 8.79149 | 198 ft | 8 kts | 311° |
| 2026-04-17 13:26 | 42.52513 | 8.79090 | 196 ft | 0 kts | 301° |
| 2026-04-17 13:26 | 42.52513 | 8.79091 | 196 ft | 0 kts | 301° |